Time;durP1;ratioP1;P1;durP2;ratioP2;P2;SDS_P1;SDS_P2;PMS_P1;PMS_P2;Temp;Humidity;BMP_temperature;BMP_pressure;BME280_temperature;BME280_humidity;BME280_pressure;Samples;Min_cycle;Max_cycle;Signal;HPM_P1;HPM_P2
2022/03/18 00:00:54;;;;;;;1999.90;999.90;;;4.90;99.90;;;;;;5083019;28;20460;-70
2022/03/18 00:03:19;;;;;;;1999.90;999.90;;;4.90;99.90;;;;;;5083561;28;20530;-71
2022/03/18 00:05:45;;;;;;;1999.90;999.90;;;4.90;99.90;;;;;;5065473;28;20476;-71
2022/03/18 00:08:11;;;;;;;1999.90;999.90;;;4.90;99.90;;;;;;5083803;28;20427;-71
2022/03/18 00:10:37;;;;;;;1999.90;999.90;;;5.00;99.90;;;;;;5084247;28;20767;-71
2022/03/18 00:13:04;;;;;;;1999.90;999.90;;;5.00;99.90;;;;;;5082931;28;20250;-71
2022/03/18 00:15:29;;;;;;;1999.90;999.90;;;4.90;99.90;;;;;;5083097;28;21003;-71
2022/03/18 00:17:56;;;;;;;1999.90;999.90;;;4.80;99.90;;;;;;5083111;28;20413;-71
2022/03/18 00:20:22;;;;;;;1999.90;999.90;;;4.80;99.90;;;;;;5065891;28;20422;-71
2022/03/18 00:22:49;;;;;;;1999.90;999.90;;;4.90;99.90;;;;;;5084156;28;20405;-70
2022/03/18 00:25:17;;;;;;;1999.90;999.90;;;4.90;99.90;;;;;;5082927;28;20456;-71
2022/03/18 00:27:44;;;;;;;1999.90;999.90;;;4.90;99.90;;;;;;5083419;28;20401;-71
2022/03/18 00:30:11;;;;;;;1999.90;999.90;;;4.80;99.90;;;;;;5083179;28;20401;-71
2022/03/18 00:32:40;;;;;;;1999.90;999.90;;;4.80;99.90;;;;;;5084286;28;20452;-70
2022/03/18 00:35:08;;;;;;;1999.90;999.90;;;4.80;99.90;;;;;;5083223;28;20470;-71
2022/03/18 00:37:34;;;;;;;1999.90;999.90;;;4.80;99.90;;;;;;5081436;28;20431;-71
2022/03/18 00:40:00;;;;;;;1999.90;999.90;;;4.90;99.90;;;;;;5084593;28;20413;-71
2022/03/18 00:42:26;;;;;;;1999.90;999.90;;;4.90;99.90;;;;;;5083999;28;20444;-71
2022/03/18 00:44:52;;;;;;;1999.90;999.90;;;4.90;99.90;;;;;;5065923;28;20456;-72
2022/03/18 00:52:53;;;;;;;1999.90;999.90;;;4.80;99.90;;;;;;5066971;28;20409;-71
2022/03/18 00:55:19;;;;;;;1999.90;999.90;;;4.70;99.90;;;;;;5084388;28;20423;-71
2022/03/18 00:57:44;;;;;;;1999.90;999.90;;;4.70;99.90;;;;;;5082722;28;20185;-71
2022/03/18 01:00:11;;;;;;;1999.90;999.90;;;4.60;99.90;;;;;;5084237;28;20273;-71
2022/03/18 01:02:36;;;;;;;1999.90;999.90;;;4.60;99.90;;;;;;5085205;28;20194;-71
2022/03/18 01:05:02;;;;;;;1999.90;999.90;;;4.50;99.90;;;;;;5085272;28;20445;-71
2022/03/18 01:07:28;;;;;;;1999.90;999.90;;;4.50;99.90;;;;;;5085547;28;20157;-71
2022/03/18 01:09:54;;;;;;;1999.90;999.90;;;4.50;99.90;;;;;;5084254;28;20171;-71
2022/03/18 01:12:20;;;;;;;1999.90;999.90;;;4.40;99.90;;;;;;5085610;28;20478;-71
2022/03/18 01:14:46;;;;;;;1999.90;999.90;;;4.40;99.90;;;;;;5066714;28;20421;-71
2022/03/18 01:17:11;;;;;;;1999.90;999.90;;;4.40;99.90;;;;;;5084611;28;20167;-72
2022/03/18 01:19:37;;;;;;;1999.90;999.90;;;4.40;99.90;;;;;;5071810;28;20236;-71
2022/03/18 01:22:03;;;;;;;1999.90;999.90;;;4.40;99.90;;;;;;5071653;28;20214;-70
2022/03/18 01:24:28;;;;;;;1999.90;999.90;;;4.40;99.90;;;;;;5071406;28;20687;-70
2022/03/18 01:26:54;;;;;;;1999.90;999.90;;;4.40;99.90;;;;;;5071745;28;20164;-70
2022/03/18 01:29:19;;;;;;;1999.90;999.90;;;4.30;99.90;;;;;;5071688;28;20174;-70
2022/03/18 01:31:45;;;;;;;1999.90;999.90;;;4.30;99.90;;;;;;5074500;28;20210;-71
2022/03/18 01:34:10;;;;;;;1999.90;999.90;;;4.30;99.90;;;;;;5075424;28;20174;-71
2022/03/18 01:36:36;;;;;;;1999.90;999.90;;;4.20;99.90;;;;;;5075650;28;20177;-71
2022/03/18 01:39:02;;;;;;;1999.90;999.90;;;4.20;99.90;;;;;;5075778;28;20320;-71
2022/03/18 01:41:28;;;;;;;1999.90;999.90;;;4.20;99.90;;;;;;5075465;28;20190;-71
2022/03/18 01:43:54;;;;;;;1999.90;999.90;;;4.20;99.90;;;;;;5075384;28;20216;-71
2022/03/18 01:46:19;;;;;;;1999.90;999.90;;;4.20;99.90;;;;;;5075433;28;20238;-71
2022/03/18 01:48:45;;;;;;;1999.90;999.90;;;4.30;99.90;;;;;;5075435;28;20163;-71
2022/03/18 01:51:15;;;;;;;1999.90;999.90;;;4.40;99.90;;;;;;5075282;28;20289;-71
2022/03/18 01:53:43;;;;;;;1999.90;999.90;;;4.50;99.90;;;;;;5075326;28;20488;-71
2022/03/18 01:56:09;;;;;;;1999.90;999.90;;;4.60;99.90;;;;;;5074981;28;20859;-71
2022/03/18 01:58:36;;;;;;;1999.90;999.90;;;4.60;99.90;;;;;;5075216;28;20439;-71
2022/03/18 02:01:02;;;;;;;1999.90;999.90;;;4.60;99.90;;;;;;5075003;28;20937;-71
2022/03/18 02:03:28;;;;;;;1999.90;999.90;;;4.70;99.90;;;;;;5075116;28;20412;-71
2022/03/18 02:05:54;;;;;;;1999.90;999.90;;;4.60;99.90;;;;;;5074634;28;20459;-71
2022/03/18 02:08:21;;;;;;;1999.90;999.90;;;4.60;99.90;;;;;;5075005;28;20584;-71
2022/03/18 02:10:46;;;;;;;1999.90;999.90;;;4.50;99.90;;;;;;5074868;28;20490;-71
2022/03/18 02:13:12;;;;;;;1999.90;999.90;;;4.60;99.90;;;;;;5074943;28;20171;-71
2022/03/18 02:15:38;;;;;;;1999.90;999.90;;;4.60;99.90;;;;;;5074503;28;20640;-71
2022/03/18 02:18:05;;;;;;;1999.90;999.90;;;4.60;99.90;;;;;;5075003;28;20496;-71
2022/03/18 02:20:32;;;;;;;1999.90;999.90;;;4.60;99.90;;;;;;5074702;28;20405;-71
2022/03/18 02:22:58;;;;;;;1999.90;999.90;;;4.70;99.90;;;;;;5074686;28;20627;-71
2022/03/18 02:25:24;;;;;;;1999.90;999.90;;;4.70;99.90;;;;;;5074311;28;20453;-71
2022/03/18 02:27:55;;;;;;;1999.90;999.90;;;4.70;99.90;;;;;;5056776;28;20167;-71
2022/03/18 02:30:21;;;;;;;1999.90;999.90;;;4.70;99.90;;;;;;5074500;28;20167;-71
2022/03/18 02:32:47;;;;;;;1999.90;999.90;;;4.70;99.90;;;;;;5074367;28;20234;-71
2022/03/18 02:35:13;;;;;;;1999.90;999.90;;;4.60;99.90;;;;;;5074157;28;20436;-71
2022/03/18 02:37:38;;;;;;;1999.90;999.90;;;4.60;99.90;;;;;;5074501;28;20171;-71
2022/03/18 02:40:05;;;;;;;1999.90;999.90;;;4.60;99.90;;;;;;5074387;28;20171;-71
2022/03/18 02:42:30;;;;;;;1999.90;999.90;;;4.70;99.90;;;;;;5073577;28;20186;-71
2022/03/18 02:44:56;;;;;;;1999.90;999.90;;;4.60;99.90;;;;;;5073914;28;20456;-71
2022/03/18 02:47:22;;;;;;;1999.90;999.90;;;4.60;99.90;;;;;;5074270;28;20163;-71
2022/03/18 02:49:47;;;;;;;1999.90;999.90;;;4.60;99.90;;;;;;5074160;28;20301;-71
2022/03/18 02:52:14;;;;;;;1999.90;999.90;;;4.50;99.90;;;;;;5074154;28;20528;-71
2022/03/18 02:54:40;;;;;;;1999.90;999.90;;;4.50;99.90;;;;;;5073762;28;20178;-71
2022/03/18 02:57:06;;;;;;;1999.90;999.90;;;4.50;99.90;;;;;;5074549;28;20412;-71
2022/03/18 02:59:32;;;;;;;1999.90;999.90;;;4.50;99.90;;;;;;5074559;28;20405;-71
2022/03/18 03:01:57;;;;;;;1999.90;999.90;;;4.40;99.90;;;;;;5074253;28;20537;-71
2022/03/18 03:04:23;;;;;;;1999.90;999.90;;;4.40;99.90;;;;;;5073604;28;20187;-71
2022/03/18 03:09:33;;;;;;;1999.90;999.90;;;4.30;99.90;;;;;;5073844;28;20675;-71
2022/03/18 03:11:58;;;;;;;1999.90;999.90;;;4.40;99.90;;;;;;5073763;28;20458;-71
2022/03/18 03:14:24;;;;;;;1999.90;999.90;;;4.40;99.90;;;;;;5073494;28;20163;-71
2022/03/18 03:16:49;;;;;;;1999.90;999.90;;;4.30;99.90;;;;;;5073706;28;20172;-71
2022/03/18 03:19:15;;;;;;;1999.90;999.90;;;4.40;99.90;;;;;;5073633;28;20171;-71
2022/03/18 03:21:41;;;;;;;1999.90;999.90;;;4.40;99.90;;;;;;5073505;28;20195;-71
2022/03/18 03:24:08;;;;;;;1999.90;999.90;;;4.30;99.90;;;;;;5073140;28;20164;-71
2022/03/18 03:26:34;;;;;;;1999.90;999.90;;;4.30;99.90;;;;;;5073511;28;21193;-71
2022/03/18 03:29:00;;;;;;;1999.90;999.90;;;4.30;99.90;;;;;;5073491;28;20393;-71
2022/03/18 03:31:26;;;;;;;1999.90;999.90;;;4.20;99.90;;;;;;5073229;28;20209;-71
2022/03/18 03:33:51;;;;;;;1999.90;999.90;;;4.20;99.90;;;;;;5073256;28;20393;-71
2022/03/18 03:36:17;;;;;;;1999.90;999.90;;;4.20;99.90;;;;;;5073043;28;20530;-71
2022/03/18 03:38:43;;;;;;;1999.90;999.90;;;4.20;99.90;;;;;;5073174;28;20173;-71
2022/03/18 03:41:09;;;;;;;1999.90;999.90;;;4.20;99.90;;;;;;5073125;28;20420;-71
2022/03/18 03:43:34;;;;;;;1999.90;999.90;;;4.20;99.90;;;;;;5073135;28;20178;-71
2022/03/18 03:46:00;;;;;;;1999.90;999.90;;;4.20;99.90;;;;;;5072824;28;20281;-71
2022/03/18 03:48:26;;;;;;;1999.90;999.90;;;4.20;99.90;;;;;;5072935;28;20254;-71
2022/03/18 03:50:52;;;;;;;1999.90;999.90;;;4.10;99.90;;;;;;5072912;28;20413;-71
2022/03/18 03:53:18;;;;;;;1999.90;999.90;;;4.10;99.90;;;;;;5071978;28;20412;-71
2022/03/18 03:55:43;;;;;;;1999.90;999.90;;;4.10;99.90;;;;;;5072612;28;20170;-71
2022/03/18 03:58:09;;;;;;;1999.90;999.90;;;4.00;99.90;;;;;;5072882;28;20167;-71
2022/03/18 04:00:36;;;;;;;1999.90;999.90;;;4.00;99.90;;;;;;5072781;28;20359;-71
2022/03/18 04:03:03;;;;;;;1999.90;999.90;;;3.90;99.90;;;;;;5072688;28;20228;-71
2022/03/18 04:05:30;;;;;;;1999.90;999.90;;;3.90;99.90;;;;;;5072394;28;20996;-71
2022/03/18 04:07:56;;;;;;;1999.90;999.90;;;3.90;99.90;;;;;;5072566;28;20194;-71
2022/03/18 04:10:22;;;;;;;1999.90;999.90;;;3.90;99.90;;;;;;5072618;28;20409;-71
2022/03/18 04:12:48;;;;;;;1999.90;999.90;;;3.90;99.90;;;;;;5072488;28;20683;-71
2022/03/18 04:15:14;;;;;;;1999.90;999.90;;;3.80;99.90;;;;;;5072287;28;20825;-71
2022/03/18 04:17:45;;;;;;;1999.90;999.90;;;3.80;99.90;;;;;;5072537;28;20171;-71
2022/03/18 04:20:24;;;;;;;1999.90;999.90;;;3.80;99.90;;;;;;5072496;28;20170;-71
2022/03/18 04:22:51;;;;;;;1999.90;999.90;;;3.70;99.90;;;;;;5054528;28;20171;-71
2022/03/18 04:25:17;;;;;;;1999.90;999.90;;;3.70;99.90;;;;;;5072010;28;20962;-71
2022/03/18 04:27:42;;;;;;;1999.90;999.90;;;3.70;99.90;;;;;;5072356;28;20487;-71
2022/03/18 04:30:13;;;;;;;1999.90;999.90;;;3.70;99.90;;;;;;5072305;28;20906;-71
2022/03/18 04:32:39;;;;;;;1999.90;999.90;;;3.70;99.90;;;;;;5072132;28;20579;-71
2022/03/18 04:35:06;;;;;;;1999.90;999.90;;;3.70;99.90;;;;;;5071873;28;20175;-71
2022/03/18 04:37:31;;;;;;;1999.90;999.90;;;3.70;99.90;;;;;;5072135;28;20778;-71
2022/03/18 04:39:57;;;;;;;1999.90;999.90;;;3.60;99.90;;;;;;5072164;28;20405;-71
2022/03/18 04:42:23;;;;;;;1999.90;999.90;;;3.50;99.90;;;;;;5072143;28;20595;-71
2022/03/18 04:44:48;;;;;;;1999.90;999.90;;;3.40;99.90;;;;;;5071707;28;20234;-71
2022/03/18 04:47:14;;;;;;;1999.90;999.90;;;3.30;99.90;;;;;;5072015;28;20175;-71
2022/03/18 04:49:40;;;;;;;1999.90;999.90;;;3.30;99.90;;;;;;5072039;28;20182;-71
2022/03/18 04:52:07;;;;;;;1999.90;999.90;;;3.30;99.90;;;;;;5071961;28;20252;-71
2022/03/18 04:54:32;;;;;;;1999.90;999.90;;;3.30;99.90;;;;;;5071763;28;20250;-71
2022/03/18 04:57:18;;;;;;;1999.90;999.90;;;3.30;99.90;;;;;;5071945;28;20595;-71
2022/03/18 04:59:46;;;;;;;1999.90;999.90;;;3.10;99.90;;;;;;5072054;28;20530;-71
2022/03/18 05:02:12;;;;;;;1999.90;999.90;;;2.80;99.90;;;;;;5071757;28;20218;-71
2022/03/18 05:04:38;;;;;;;1999.90;999.90;;;2.70;99.90;;;;;;5071308;28;20203;-71
2022/03/18 05:07:05;;;;;;;1999.90;999.90;;;2.70;99.90;;;;;;5071902;28;20167;-71
2022/03/18 05:09:31;;;;;;;1999.90;999.90;;;2.70;99.90;;;;;;5071901;28;20203;-71
2022/03/18 05:11:56;;;;;;;1999.90;999.90;;;2.70;99.90;;;;;;5073585;28;20210;-71
2022/03/18 05:14:22;;;;;;;1999.90;999.90;;;2.60;99.90;;;;;;5083426;28;20413;-71
2022/03/18 05:16:49;;;;;;;1999.90;999.90;;;2.70;99.90;;;;;;5084835;28;20189;-70
2022/03/18 05:19:14;;;;;;;1999.90;999.90;;;2.70;99.90;;;;;;5071806;28;20171;-70
2022/03/18 05:21:41;;;;;;;1999.90;999.90;;;2.70;99.90;;;;;;5071677;28;20198;-70
2022/03/18 05:24:06;;;;;;;1999.90;999.90;;;2.70;99.90;;;;;;5079697;28;20163;-71
2022/03/18 05:26:33;;;;;;;1999.90;999.90;;;2.70;99.90;;;;;;5085549;28;20175;-72
2022/03/18 05:28:58;;;;;;;1999.90;999.90;;;2.70;99.90;;;;;;5087434;28;20198;-71
2022/03/18 05:31:26;;;;;;;1999.90;999.90;;;2.70;99.90;;;;;;5068869;28;20202;-71
2022/03/18 05:33:52;;;;;;;1999.90;999.90;;;2.70;99.90;;;;;;5087421;28;20159;-71
2022/03/18 05:36:17;;;;;;;1999.90;999.90;;;2.50;99.90;;;;;;5084020;28;20179;-72
2022/03/18 05:38:43;;;;;;;1999.90;999.90;;;2.40;99.90;;;;;;5085508;28;20197;-72
2022/03/18 05:41:09;;;;;;;1999.90;999.90;;;2.40;99.90;;;;;;5082768;28;20229;-71
2022/03/18 05:43:36;;;;;;;1999.90;999.90;;;2.40;99.90;;;;;;5085017;28;20408;-71
2022/03/18 05:46:02;;;;;;;1999.90;999.90;;;2.40;99.90;;;;;;5085087;28;20187;-71
2022/03/18 05:48:28;;;;;;;1999.90;999.90;;;2.40;99.90;;;;;;5084811;28;20182;-72
2022/03/18 05:50:54;;;;;;;1999.90;999.90;;;2.20;99.90;;;;;;5085461;28;20713;-71
2022/03/18 05:53:19;;;;;;;1999.90;999.90;;;2.20;99.90;;;;;;5084937;28;20167;-71
2022/03/18 05:58:29;;;;;;;1999.90;999.90;;;2.00;99.90;;;;;;5085136;28;20200;-71
2022/03/18 06:00:56;;;;;;;1999.90;999.90;;;2.10;99.90;;;;;;5085756;28;20214;-70
2022/03/18 06:03:21;;;;;;;1999.90;999.90;;;2.20;99.90;;;;;;5067801;28;20413;-71
2022/03/18 06:05:47;;;;;;;1999.90;999.90;;;2.20;99.90;;;;;;5086806;28;20639;-71
2022/03/18 06:13:41;;;;;;;1999.90;999.90;;;2.40;99.90;;;;;;5086017;28;20178;-70
2022/03/18 06:16:07;;;;;;;1999.90;999.90;;;2.40;99.90;;;;;;5086276;28;20171;-69
2022/03/18 06:18:32;;;;;;;1999.90;999.90;;;2.50;99.90;;;;;;5071394;28;20548;-71
2022/03/18 06:20:59;;;;;;;1999.90;999.90;;;2.60;99.90;;;;;;5071885;28;20202;-71
2022/03/18 06:23:25;;;;;;;1999.90;999.90;;;2.60;99.90;;;;;;5071688;28;20167;-71
2022/03/18 06:25:51;;;;;;;1999.90;999.90;;;2.70;99.90;;;;;;5088827;28;20214;-70
2022/03/18 06:28:16;;;;;;;1999.90;999.90;;;2.70;99.90;;;;;;5089781;28;20535;-71
2022/03/18 06:30:42;;;;;;;1999.90;999.90;;;2.80;99.90;;;;;;5089242;28;20163;-71
2022/03/18 06:33:08;;;;;;;1999.90;999.90;;;2.90;99.90;;;;;;5089644;28;20175;-71
2022/03/18 06:35:34;;;;;;;1999.90;999.90;;;3.00;99.90;;;;;;5090025;28;20924;-71
2022/03/18 06:37:59;;;;;;;1999.90;999.90;;;3.10;99.90;;;;;;5072257;28;20538;-71
2022/03/18 06:40:25;;;;;;;1999.90;999.90;;;3.20;99.90;;;;;;5072296;28;20177;-70
2022/03/18 06:42:51;;;;;;;1999.90;999.90;;;3.20;99.90;;;;;;5089949;28;20258;-71
2022/03/18 06:45:16;;;;;;;1999.90;999.90;;;3.30;99.90;;;;;;5061945;28;20574;-71
2022/03/18 06:47:42;;;;;;;1999.90;999.90;;;3.40;99.90;;;;;;5074332;28;20512;-71
2022/03/18 06:50:09;;;;;;;1999.90;999.90;;;3.50;99.90;;;;;;5074215;28;20229;-71
2022/03/18 06:52:35;;;;;;;1999.90;999.90;;;3.60;99.90;;;;;;5074098;28;20186;-71
2022/03/18 06:55:01;;;;;;;1999.90;999.90;;;3.60;99.90;;;;;;5073838;28;20608;-71
2022/03/18 06:57:26;;;;;;;1999.90;999.90;;;3.70;99.90;;;;;;5056122;28;20171;-71
2022/03/18 06:59:52;;;;;;;1999.90;999.90;;;3.70;99.90;;;;;;5073947;28;20416;-71
2022/03/18 07:02:18;;;;;;;1999.90;999.90;;;3.90;99.90;;;;;;5073926;28;20676;-72
2022/03/18 07:04:43;;;;;;;1999.90;999.90;;;4.00;99.90;;;;;;5073633;28;20190;-71
2022/03/18 07:07:09;;;;;;;1999.90;999.90;;;4.10;99.90;;;;;;5073900;28;20167;-71
2022/03/18 07:09:36;;;;;;;1999.90;999.90;;;4.20;99.90;;;;;;5073902;28;20543;-71
2022/03/18 07:12:02;;;;;;;1999.90;999.90;;;4.30;99.90;;;;;;5073730;28;20730;-71
2022/03/18 07:14:28;;;;;;;1999.90;999.90;;;4.40;99.90;;;;;;5073427;28;20167;-71
2022/03/18 07:19:38;;;;;;;1999.90;999.90;;;4.60;99.90;;;;;;5073974;28;20474;-71
2022/03/18 07:22:05;;;;;;;1999.90;999.90;;;4.80;99.90;;;;;;5073506;28;20922;-72
2022/03/18 07:24:31;;;;;;;1999.90;999.90;;;4.80;99.90;;;;;;5073187;28;20191;-72
2022/03/18 07:26:57;;;;;;;1999.90;999.90;;;4.90;99.90;;;;;;5073443;28;20928;-72
2022/03/18 07:29:22;;;;;;;1999.90;999.90;;;5.00;99.90;;;;;;5073351;28;20405;-72
2022/03/18 07:31:48;;;;;;;1999.90;999.90;;;5.10;99.90;;;;;;5073696;28;20222;-72
2022/03/18 07:34:14;;;;;;;1999.90;999.90;;;5.10;99.90;;;;;;5073060;28;20170;-72
2022/03/18 07:36:39;;;;;;;1999.90;999.90;;;5.20;99.90;;;;;;5073340;28;20160;-72
2022/03/18 07:39:05;;;;;;;1999.90;999.90;;;5.30;99.90;;;;;;5073273;28;20204;-72
2022/03/18 07:41:31;;;;;;;1999.90;999.90;;;5.40;99.90;;;;;;5073151;28;20218;-72
2022/03/18 07:43:56;;;;;;;1999.90;999.90;;;5.40;99.90;;;;;;5073082;28;20250;-72
2022/03/18 07:46:22;;;;;;;1999.90;999.90;;;5.50;99.90;;;;;;5072841;28;20700;-72
2022/03/18 07:48:47;;;;;;;1999.90;999.90;;;5.60;99.90;;;;;;5073045;28;20163;-72
2022/03/18 07:51:13;;;;;;;1999.90;999.90;;;5.70;99.90;;;;;;5073367;28;20183;-70
2022/03/18 07:53:38;;;;;;;1999.90;999.90;;;5.90;99.90;;;;;;5072921;28;20164;-70
2022/03/18 07:56:05;;;;;;;1999.90;999.90;;;6.10;99.90;;;;;;5072736;28;20170;-70
2022/03/18 07:58:30;;;;;;;1999.90;999.90;;;6.20;99.90;;;;;;5072577;28;20178;-71
2022/03/18 08:00:57;;;;;;;1999.90;999.90;;;6.20;99.90;;;;;;5072738;28;20429;-70
2022/03/18 08:03:22;;;;;;;1999.90;999.90;;;6.30;99.90;;;;;;5072739;28;20262;-70
2022/03/18 08:05:48;;;;;;;1999.90;999.90;;;6.40;99.90;;;;;;5072377;28;20537;-70
2022/03/18 08:08:14;;;;;;;1999.90;999.90;;;6.50;99.90;;;;;;5072686;28;20159;-72
2022/03/18 08:10:39;;;;;;;1999.90;999.90;;;6.60;99.90;;;;;;5072630;28;20170;-71
2022/03/18 08:13:05;;;;;;;1999.90;999.90;;;6.70;99.90;;;;;;5072561;28;20179;-70
2022/03/18 08:15:32;;;;;;;1999.90;999.90;;;6.90;99.90;;;;;;5072292;28;20421;-70
2022/03/18 08:17:58;;;;;;;1999.90;999.90;;;6.90;99.90;;;;;;5072466;28;20409;-71
2022/03/18 08:20:24;;;;;;;1999.90;999.90;;;7.00;99.90;;;;;;5072465;28;20991;-71
2022/03/18 08:22:50;;;;;;;1999.90;999.90;;;7.10;99.90;;;;;;5072356;28;20425;-70
2022/03/18 08:25:17;;;;;;;1999.90;999.90;;;7.10;99.90;;;;;;5072077;28;20461;-71
2022/03/18 08:27:42;;;;;;;1999.90;999.90;;;7.30;99.90;;;;;;5072311;28;20491;-71
2022/03/18 08:30:11;;;;;;;1999.90;999.90;;;7.40;99.90;;;;;;5072307;28;20961;-71
2022/03/18 08:32:37;;;;;;;1999.90;999.90;;;7.60;99.90;;;;;;5072028;28;20287;-71
2022/03/18 08:35:03;;;;;;;1999.90;999.90;;;7.70;99.90;;;;;;5072019;28;20441;-70
2022/03/18 08:40:14;;;;;;;1999.90;999.90;;;7.80;99.90;;;;;;5072049;28;20438;-71
2022/03/18 08:42:40;;;;;;;1999.90;999.90;;;8.00;99.90;;;;;;5072143;28;20425;-70
2022/03/18 08:45:06;;;;;;;1999.90;999.90;;;8.10;99.90;;;;;;5071789;28;20819;-71
2022/03/18 08:47:32;;;;;;;1999.90;999.90;;;8.20;99.90;;;;;;5072009;28;20401;-71
2022/03/18 08:49:58;;;;;;;1999.90;999.90;;;8.30;99.90;;;;;;5072089;28;20408;-71
2022/03/18 08:52:23;;;;;;;1999.90;999.90;;;8.30;99.90;;;;;;5071966;28;20190;-71
2022/03/18 08:54:49;;;;;;;1999.90;999.90;;;8.40;99.90;;;;;;5071724;28;20175;-71
2022/03/18 08:57:15;;;;;;;1999.90;999.90;;;8.40;99.90;;;;;;5072013;28;20666;-71
2022/03/18 08:59:41;;;;;;;1999.90;999.90;;;8.50;99.90;;;;;;5071739;28;20201;-70
2022/03/18 09:02:06;;;;;;;1999.90;999.90;;;8.50;99.90;;;;;;5071814;28;20426;-71
2022/03/18 09:04:32;;;;;;;1999.90;999.90;;;8.60;99.90;;;;;;5071599;28;20200;-71
2022/03/18 09:06:57;;;;;;;1999.90;999.90;;;8.70;99.90;;;;;;5070216;28;20582;-71
2022/03/18 09:09:23;;;;;;;1999.90;999.90;;;8.70;99.90;;;;;;5071366;28;20159;-70
2022/03/18 09:11:49;;;;;;;1999.90;999.90;;;8.80;99.90;;;;;;5071065;28;20190;-72
2022/03/18 09:14:15;;;;;;;1999.90;999.90;;;8.90;99.90;;;;;;5066210;28;20419;-71
2022/03/18 09:16:40;;;;;;;1999.90;999.90;;;8.90;99.90;;;;;;5071545;28;20791;-70
2022/03/18 09:19:07;;;;;;;1999.90;999.90;;;9.00;99.90;;;;;;5071108;28;20638;-70
2022/03/18 09:21:34;;;;;;;1999.90;999.90;;;9.10;99.90;;;;;;5070801;28;20276;-70
2022/03/18 09:24:00;;;;;;;1999.90;999.90;;;9.40;99.90;;;;;;5070979;28;20401;-70
2022/03/18 09:26:26;;;;;;;1999.90;999.90;;;9.40;99.90;;;;;;5071146;28;20832;-70
2022/03/18 09:28:53;;;;;;;1999.90;999.90;;;9.50;99.90;;;;;;5070701;28;20398;-69
2022/03/18 09:31:18;;;;;;;1999.90;999.90;;;9.50;99.90;;;;;;5071068;28;20487;-69
2022/03/18 09:33:46;;;;;;;1999.90;999.90;;;9.50;99.90;;;;;;5071087;28;20408;-70
2022/03/18 09:36:14;;;;;;;1999.90;999.90;;;9.70;99.90;;;;;;5070553;28;20167;-70
2022/03/18 09:38:41;;;;;;;1999.90;999.90;;;9.70;99.90;;;;;;5070481;28;20412;-71
2022/03/18 09:41:07;;;;;;;1999.90;999.90;;;9.90;99.90;;;;;;5070883;28;20426;-71
2022/03/18 09:43:34;;;;;;;1999.90;999.90;;;10.10;99.90;;;;;;5070781;28;20413;-70
2022/03/18 09:46:06;;;;;;;1999.90;999.90;;;10.30;99.90;;;;;;5070700;28;20482;-71
2022/03/18 09:48:32;;;;;;;1999.90;999.90;;;10.30;99.90;;;;;;5071124;28;20956;-71
2022/03/18 09:50:58;;;;;;;1999.90;999.90;;;10.40;99.90;;;;;;5070832;28;20454;-70
2022/03/18 09:53:24;;;;;;;1999.90;999.90;;;10.60;99.90;;;;;;5074526;28;20229;-71
2022/03/18 09:55:53;;;;;;;1999.90;999.90;;;10.70;99.90;;;;;;5074663;28;20440;-71
2022/03/18 09:58:22;;;;;;;1999.90;999.90;;;10.90;99.90;;;;;;5074530;28;20408;-71
2022/03/18 10:00:50;;;;;;;1999.90;999.90;;;11.00;99.90;;;;;;5074619;28;20444;-71
2022/03/18 10:03:18;;;;;;;1999.90;999.90;;;11.10;99.90;;;;;;5074705;28;20891;-71
2022/03/18 10:05:54;;;;;;;1999.90;999.90;;;11.20;99.90;;;;;;5074038;28;20460;-71
2022/03/18 10:08:21;;;;;;;1999.90;999.90;;;11.30;99.90;;;;;;5056612;28;20413;-71
2022/03/18 10:10:48;;;;;;;1999.90;999.90;;;11.30;99.90;;;;;;5074574;28;20428;-71
2022/03/18 10:13:16;;;;;;;1999.90;999.90;;;11.30;99.90;;;;;;5056708;28;20987;-71
2022/03/18 10:15:43;;;;;;;1999.90;999.90;;;11.40;99.90;;;;;;5074354;28;20419;-71
2022/03/18 10:18:13;;;;;;;1999.90;999.90;;;11.50;99.90;;;;;;5074347;28;21152;-71
2022/03/18 10:20:42;;;;;;;1999.90;999.90;;;11.70;99.90;;;;;;5074020;28;20418;-72
2022/03/18 10:23:16;;;;;;;1999.90;999.90;;;11.80;99.90;;;;;;5074204;28;20413;-71
2022/03/18 10:25:47;;;;;;;1999.90;999.90;;;11.90;99.90;;;;;;5073989;28;20972;-71
2022/03/18 10:28:13;;;;;;;1999.90;999.90;;;12.00;99.90;;;;;;5074058;28;20819;-71
2022/03/18 10:30:39;;;;;;;1999.90;999.90;;;12.10;99.90;;;;;;5074023;28;20440;-71
2022/03/18 10:33:06;;;;;;;1999.90;999.90;;;12.20;99.90;;;;;;5074327;28;20171;-71
2022/03/18 10:38:32;;;;;;;1999.90;999.90;;;12.40;99.90;;;;;;5073189;28;20423;-69
2022/03/18 10:40:59;;;;;;;1999.90;999.90;;;12.50;99.90;;;;;;5073889;28;20500;-70
2022/03/18 10:43:26;;;;;;;1999.90;999.90;;;12.70;99.90;;;;;;5073260;28;20412;-70
2022/03/18 10:46:07;;;;;;;1999.90;999.90;;;12.80;99.90;;;;;;5073255;28;20484;-72
2022/03/18 10:48:32;;;;;;;1999.90;999.90;;;12.90;99.90;;;;;;5073098;28;20495;-70
2022/03/18 10:51:06;;;;;;;1999.90;999.90;;;13.00;99.90;;;;;;5074152;28;20508;-70
2022/03/18 10:53:34;;;;;;;1999.90;999.90;;;13.20;99.90;;;;;;5073714;28;20398;-70
2022/03/18 10:56:02;;;;;;;1999.90;999.90;;;13.30;99.90;;;;;;5073084;28;20492;-70
2022/03/18 10:58:34;;;;;;;1999.90;999.90;;;13.40;99.90;;;;;;5073708;28;20416;-70
2022/03/18 11:01:01;;;;;;;1999.90;999.90;;;13.00;99.90;;;;;;5073637;28;20853;-71
2022/03/18 11:03:28;;;;;;;1999.90;999.90;;;12.90;99.90;;;;;;5073218;28;20434;-73
2022/03/18 11:05:54;;;;;;;1999.90;999.90;;;13.00;99.90;;;;;;5074615;28;20548;-73
2022/03/18 11:08:26;;;;;;;1999.90;999.90;;;13.20;99.90;;;;;;5083122;28;20788;-72
2022/03/18 11:11:14;;;;;;;1999.90;999.90;;;13.40;99.90;;;;;;5072834;28;20490;-73
2022/03/18 11:14:01;;;;;;;1999.90;999.90;;;13.60;99.90;;;;;;5073558;28;20420;-73
2022/03/18 11:16:29;;;;;;;1999.90;999.90;;;13.80;99.90;;;;;;5073446;28;20405;-73
2022/03/18 11:18:57;;;;;;;1999.90;999.90;;;14.00;99.90;;;;;;5073005;28;20442;-73
2022/03/18 11:21:35;;;;;;;1999.90;999.90;;;14.10;99.90;;;;;;5073118;28;20508;-72
2022/03/18 11:24:03;;;;;;;1999.90;999.90;;;14.30;99.90;;;;;;5073222;28;20504;-73
2022/03/18 11:26:31;;;;;;;1999.90;999.90;;;14.50;99.90;;;;;;5072571;28;20543;-73
2022/03/18 11:29:06;;;;;;;1999.90;999.90;;;14.70;99.90;;;;;;5073130;28;20410;-73
2022/03/18 11:31:33;;;;;;;1999.90;999.90;;;14.80;99.90;;;;;;5072854;28;20499;-72
2022/03/18 11:34:15;;;;;;;1999.90;999.90;;;14.90;99.80;;;;;;5072448;28;20883;-72
2022/03/18 11:37:05;;;;;;;1999.90;999.90;;;14.80;97.60;;;;;;5072225;28;20433;-72
2022/03/18 11:39:31;;;;;;;1999.90;999.90;;;14.80;98.10;;;;;;5072307;28;20409;-73
2022/03/18 11:42:03;;;;;;;1999.90;999.90;;;14.80;97.40;;;;;;5072533;28;20429;-73
2022/03/18 11:44:55;;;;;;;1999.90;999.90;;;14.90;97.10;;;;;;5072382;28;20167;-72
2022/03/18 11:47:30;;;;;;;1999.90;999.90;;;15.10;97.40;;;;;;5072651;28;20409;-72
2022/03/18 11:49:57;;;;;;;1999.90;999.90;;;15.40;94.40;;;;;;5072213;28;20440;-72
2022/03/18 11:52:23;;;;;;;1999.90;999.90;;;16.10;93.60;;;;;;5072571;28;20431;-73
2022/03/18 11:54:53;;;;;;;1999.90;999.90;;;16.90;91.50;;;;;;5072794;28;20873;-73
2022/03/18 11:57:33;;;;;;;1999.90;999.90;;;17.60;83.90;;;;;;5072115;28;20644;-73
2022/03/18 12:00:05;;;;;;;1999.90;999.90;;;18.20;78.80;;;;;;5072585;28;20412;-72
2022/03/18 12:02:38;;;;;;;1999.90;999.90;;;19.00;62.30;;;;;;5072081;28;20431;-73
2022/03/18 12:05:05;;;;;;;1999.90;999.90;;;19.30;54.90;;;;;;5071815;28;20917;-73
2022/03/18 12:07:54;;;;;;;1999.90;999.90;;;19.30;54.20;;;;;;5072298;28;20889;-73
2022/03/18 12:10:38;;;;;;;1999.90;999.90;;;19.10;51.30;;;;;;5071851;28;20399;-73
2022/03/18 12:13:05;;;;;;;1999.90;999.90;;;19.70;51.50;;;;;;5072119;28;20447;-73
2022/03/18 12:15:35;;;;;;;1999.90;999.90;;;20.30;43.90;;;;;;5070749;28;20474;-73
2022/03/18 12:18:01;;;;;;;1999.90;999.90;;;20.60;42.70;;;;;;5071775;28;20412;-73
2022/03/18 12:20:30;;;;;;;1999.90;999.90;;;21.20;39.20;;;;;;5071888;28;20773;-73
2022/03/18 12:23:00;;;;;;;1999.90;999.90;;;21.20;35.20;;;;;;5072132;28;20572;-73
2022/03/18 12:25:26;;;;;;;1999.90;999.90;;;21.30;34.80;;;;;;5071209;28;20500;-73
2022/03/18 12:27:53;;;;;;;1999.90;999.90;;;21.40;31.00;;;;;;5071768;28;20809;-73
2022/03/18 12:30:26;;;;;;;1999.90;999.90;;;21.40;30.60;;;;;;5071885;28;20426;-73